Oxford, Indiana
Current Conditions -  °F | °C
As of 10:54 PM on Saturday 25 Oct 2014 (Local Time) from KLAF Reporting Station
Clear Clear  
Wind Chill: 56°   Ceiling: Unl
Heat Index: 56°   Visibility: 10mi
Dew Point: 33°   Wind: 8mph
Humidity: 42%   Direction: 300°WNW
Pressure: 29.96"   Gusts: NA
Location:  40.52°N, 87.25°W
Report Text: KLAF 260254Z AUTO 30007KT 10SM CLR 13/01 A2996 RMK AO2 SLP146 T01330006 53014 TSNO
Loading
Personal Weather Stations






























Interactive Weather Map
Tropical Storm Tracking
New forecast layout! Learn more

10-Day Weather Forecast

Advertisements
Track Severe Weather on mobile